createdAt,value
2018-06-16T00:01:06.442Z,19.35
2018-06-16T00:03:37.228Z,19.41
2018-06-16T00:06:07.975Z,19.39
2018-06-16T00:08:37.705Z,19.41
2018-06-16T00:11:08.677Z,19.40
2018-06-16T00:13:38.512Z,19.38
2018-06-16T00:16:08.827Z,19.37
2018-06-16T00:18:38.826Z,19.36
2018-06-16T00:21:08.885Z,19.34
2018-06-16T00:23:39.333Z,19.32
2018-06-16T00:26:09.068Z,19.28
2018-06-16T00:28:39.889Z,19.26
2018-06-16T00:31:09.799Z,19.25
2018-06-16T00:33:40.349Z,19.30
2018-06-16T00:36:10.271Z,19.31
2018-06-16T00:38:40.106Z,19.28
2018-06-16T00:41:10.635Z,19.23
2018-06-16T00:43:40.952Z,19.20
2018-06-16T00:46:10.815Z,19.21
2018-06-16T00:48:41.196Z,19.24
2018-06-16T00:51:11.100Z,19.30
2018-06-16T00:53:41.932Z,19.27
2018-06-16T00:56:12.305Z,19.34
2018-06-16T00:58:42.622Z,19.31
2018-06-16T01:01:12.428Z,19.23
2018-06-16T01:03:42.136Z,19.20
2018-06-16T01:06:11.967Z,19.19
2018-06-16T01:08:41.706Z,19.18
2018-06-16T01:11:11.565Z,19.19
2018-06-16T01:13:42.177Z,19.14
2018-06-16T01:16:12.220Z,19.16
2018-06-16T01:18:41.877Z,19.21
2018-06-16T01:21:12.400Z,19.18
2018-06-16T01:23:43.140Z,19.07
2018-06-16T01:26:12.924Z,19.10
2018-06-16T01:28:42.685Z,18.99
2018-06-16T01:31:12.426Z,18.90
2018-06-16T01:33:42.159Z,18.90
2018-06-16T01:36:11.849Z,18.87
2018-06-16T01:38:41.596Z,18.82
2018-06-16T01:41:11.366Z,18.80
2018-06-16T01:43:41.185Z,18.77
2018-06-16T01:46:10.987Z,18.74
2018-06-16T01:48:40.749Z,18.71
2018-06-16T01:51:10.685Z,18.67
2018-06-16T01:53:40.525Z,18.66
2018-06-16T01:56:10.335Z,18.65
2018-06-16T01:58:40.130Z,18.61
2018-06-16T02:01:09.978Z,18.58
2018-06-16T02:03:39.733Z,18.55
2018-06-16T02:06:09.576Z,18.54
2018-06-16T02:08:39.335Z,18.51
2018-06-16T02:11:09.116Z,18.51
2018-06-16T02:13:38.929Z,18.50
2018-06-16T02:16:08.717Z,18.47
2018-06-16T02:18:38.409Z,18.47
2018-06-16T02:21:08.180Z,18.46
2018-06-16T02:23:37.915Z,18.46
2018-06-16T02:26:07.747Z,18.48
2018-06-16T02:28:37.461Z,18.49
2018-06-16T02:31:07.229Z,18.50
2018-06-16T02:33:36.955Z,18.50
2018-06-16T02:36:07.046Z,18.52
2018-06-16T02:38:36.800Z,18.54
2018-06-16T02:41:06.705Z,18.55
2018-06-16T02:43:36.368Z,18.54
2018-06-16T02:46:06.317Z,18.55
2018-06-16T02:48:36.076Z,18.54
2018-06-16T02:51:05.829Z,18.54
2018-06-16T02:53:35.587Z,18.53
2018-06-16T02:56:05.423Z,18.53
2018-06-16T02:58:35.259Z,18.66
2018-06-16T03:01:05.051Z,18.80
2018-06-16T03:03:34.919Z,18.63
2018-06-16T03:06:04.780Z,18.56
2018-06-16T03:08:34.579Z,18.52
2018-06-16T03:11:04.288Z,18.53
2018-06-16T03:13:34.062Z,18.54
2018-06-16T03:16:03.876Z,18.55
2018-06-16T03:18:33.674Z,18.58
2018-06-16T03:21:03.394Z,18.59
2018-06-16T03:23:33.230Z,18.63
2018-06-16T03:26:03.003Z,18.64
2018-06-16T03:28:32.844Z,18.67
2018-06-16T03:31:02.602Z,18.69
2018-06-16T03:33:32.400Z,18.71
2018-06-16T03:36:02.134Z,18.72
2018-06-16T03:38:31.902Z,18.71
2018-06-16T03:41:01.722Z,18.70
2018-06-16T03:43:31.440Z,18.69
2018-06-16T03:46:01.007Z,18.66
2018-06-16T03:48:30.740Z,18.67
2018-06-16T03:51:00.584Z,18.68
2018-06-16T03:53:30.332Z,18.72
2018-06-16T03:56:00.188Z,18.74
2018-06-16T03:58:29.572Z,18.76
2018-06-16T04:00:59.366Z,18.80
2018-06-16T04:03:29.100Z,18.82
2018-06-16T04:05:59.950Z,18.87
2018-06-16T04:08:29.703Z,18.88
2018-06-16T04:10:59.500Z,18.90
2018-06-16T04:13:29.280Z,18.93
2018-06-16T04:15:59.052Z,18.98
2018-06-16T04:18:28.845Z,19.02
2018-06-16T04:20:58.591Z,19.06
2018-06-16T04:23:28.355Z,19.12
2018-06-16T04:25:58.093Z,19.17
2018-06-16T04:28:27.864Z,19.24
2018-06-16T04:30:57.643Z,19.33
2018-06-16T04:33:27.388Z,19.38
2018-06-16T04:35:57.162Z,19.44
2018-06-16T04:38:26.931Z,19.53
2018-06-16T04:40:56.740Z,19.62
2018-06-16T04:43:26.496Z,19.69
2018-06-16T04:45:56.232Z,19.71
2018-06-16T04:48:25.605Z,19.72
2018-06-16T04:50:55.476Z,19.74
2018-06-16T04:53:25.251Z,19.75
2018-06-16T04:55:55.008Z,19.75
2018-06-16T04:58:24.826Z,19.79
2018-06-16T05:00:54.580Z,19.91
2018-06-16T05:03:24.403Z,20.00
2018-06-16T05:05:54.414Z,20.09
2018-06-16T05:08:24.215Z,20.24
2018-06-16T05:10:53.925Z,20.44
2018-06-16T05:13:23.759Z,20.59
2018-06-16T05:15:53.491Z,20.64
2018-06-16T05:18:23.263Z,20.73
2018-06-16T05:20:53.001Z,20.85
2018-06-16T05:23:22.799Z,20.85
2018-06-16T05:25:52.524Z,20.88
2018-06-16T05:28:22.456Z,21.06
2018-06-16T05:30:52.209Z,21.21
2018-06-16T05:33:22.003Z,21.44
2018-06-16T05:35:51.763Z,21.44
2018-06-16T05:38:21.551Z,21.38
2018-06-16T05:40:51.316Z,21.68
2018-06-16T05:43:21.077Z,21.97
2018-06-16T05:45:50.926Z,21.90
2018-06-16T05:48:20.673Z,21.54
2018-06-16T05:50:50.410Z,21.92
2018-06-16T05:53:20.522Z,22.22
2018-06-16T05:55:50.373Z,22.39
2018-06-16T05:58:20.163Z,22.53
2018-06-16T06:00:49.886Z,22.72
2018-06-16T06:03:19.620Z,22.85
2018-06-16T06:05:49.460Z,22.94
2018-06-16T06:08:19.206Z,23.04
2018-06-16T06:10:49.003Z,23.20
2018-06-16T06:13:18.814Z,23.30
2018-06-16T06:15:48.361Z,22.79
2018-06-16T06:18:18.550Z,23.00
2018-06-16T06:20:49.541Z,23.29
2018-06-16T06:23:20.087Z,23.56
2018-06-16T06:25:50.282Z,23.68
2018-06-16T06:28:23.918Z,23.69
2018-06-16T06:30:54.377Z,23.44
2018-06-16T06:33:24.536Z,23.77
2018-06-16T06:35:54.395Z,23.97
2018-06-16T06:38:24.199Z,24.07
2018-06-16T06:40:53.916Z,24.36
2018-06-16T06:43:23.645Z,24.59
2018-06-16T06:45:53.594Z,24.91
2018-06-16T06:48:23.423Z,25.15
2018-06-16T06:50:53.259Z,25.36
2018-06-16T06:53:23.045Z,25.62
2018-06-16T06:55:52.795Z,25.83
2018-06-16T06:58:23.111Z,26.08
2018-06-16T07:00:54.229Z,26.30
2018-06-16T07:03:24.954Z,26.49
2018-06-16T07:05:55.194Z,26.51
2018-06-16T07:08:25.568Z,26.65
2018-06-16T07:10:56.057Z,26.56
2018-06-16T07:13:25.797Z,26.67
2018-06-16T07:15:56.169Z,27.02
2018-06-16T07:18:26.119Z,27.17
2018-06-16T07:20:55.942Z,27.33
2018-06-16T07:23:26.215Z,27.10
2018-06-16T07:25:56.069Z,27.69
2018-06-16T07:28:25.830Z,27.89
2018-06-16T07:30:55.923Z,28.21
2018-06-16T07:33:26.219Z,28.60
2018-06-16T07:35:56.361Z,28.72
2018-06-16T07:38:26.282Z,28.89
2018-06-16T07:40:56.635Z,29.11
2018-06-16T07:43:26.391Z,29.30
2018-06-16T07:45:57.605Z,29.24
2018-06-16T07:48:32.194Z,29.42
2018-06-16T07:51:02.156Z,29.63
2018-06-16T07:53:32.691Z,29.40
2018-06-16T07:56:02.602Z,29.49
2018-06-16T07:58:32.590Z,29.54
2018-06-16T08:01:04.003Z,29.18
2018-06-16T08:03:38.098Z,29.60
2018-06-16T08:06:08.631Z,29.83
2018-06-16T08:08:38.955Z,29.72
2018-06-16T08:11:11.110Z,28.89
2018-06-16T08:13:42.030Z,28.62
2018-06-16T08:16:12.758Z,29.28
2018-06-16T08:18:42.655Z,29.24
2018-06-16T08:21:12.795Z,29.36
2018-06-16T08:23:43.426Z,29.33
2018-06-16T08:26:13.546Z,29.11
2018-06-16T08:28:44.997Z,29.28
2018-06-16T08:31:14.482Z,29.45
2018-06-16T08:33:44.318Z,28.54
2018-06-16T08:36:14.536Z,28.98
2018-06-16T08:38:44.609Z,29.14
2018-06-16T08:41:14.826Z,29.31
2018-06-16T08:43:45.811Z,29.58
2018-06-16T08:46:17.450Z,29.22
2018-06-16T08:48:47.443Z,29.81
2018-06-16T08:51:17.354Z,29.89
2018-06-16T08:53:47.297Z,29.59
2018-06-16T08:56:17.937Z,29.46
2018-06-16T08:58:48.496Z,28.50
2018-06-16T09:01:20.396Z,26.68
2018-06-16T09:03:52.105Z,27.31
2018-06-16T09:06:23.806Z,27.31
2018-06-16T09:08:56.704Z,27.58
2018-06-16T09:11:28.390Z,27.62
2018-06-16T09:14:01.047Z,27.84
2018-06-16T09:16:30.986Z,27.95
2018-06-16T09:19:03.761Z,27.94
2018-06-16T09:21:33.855Z,28.11
2018-06-16T09:24:04.845Z,28.34
2018-06-16T09:26:36.166Z,28.34
2018-06-16T09:29:08.154Z,27.34
2018-06-16T09:31:38.607Z,27.58
2018-06-16T09:34:10.212Z,27.43
2018-06-16T09:36:40.738Z,27.12
2018-06-16T09:39:13.040Z,26.51
2018-06-16T09:41:43.077Z,26.64
2018-06-16T09:44:15.877Z,26.77
2018-06-16T09:46:48.659Z,26.54
2018-06-16T09:49:21.510Z,26.50
2018-06-16T09:51:53.549Z,26.27
2018-06-16T09:54:23.989Z,26.32
2018-06-16T09:56:54.545Z,26.30
2018-06-16T09:59:24.298Z,26.33
2018-06-16T10:01:55.367Z,26.36
2018-06-16T10:04:25.416Z,26.29
2018-06-16T10:06:55.758Z,26.30
2018-06-16T10:09:25.629Z,26.55
2018-06-16T10:11:56.042Z,25.99
2018-06-16T10:14:27.549Z,26.15
2018-06-16T10:16:57.870Z,27.16
2018-06-16T10:19:29.388Z,27.57
2018-06-16T10:21:59.565Z,27.73
2018-06-16T10:24:31.756Z,27.56
2018-06-16T10:27:01.282Z,27.50
2018-06-16T10:29:31.105Z,27.54
2018-06-16T10:32:01.445Z,27.54
2018-06-16T10:34:32.310Z,27.55
2018-06-16T10:37:02.881Z,27.76
2018-06-16T10:39:32.858Z,28.03
2018-06-16T10:42:03.993Z,28.08
2018-06-16T10:44:34.659Z,27.97
2018-06-16T10:47:07.063Z,27.78
2018-06-16T10:49:38.194Z,27.69
2018-06-16T10:52:08.770Z,27.40
2018-06-16T10:54:39.705Z,27.85
2018-06-16T10:57:10.200Z,28.40
2018-06-16T10:59:40.097Z,28.74
2018-06-16T11:02:11.231Z,28.43
2018-06-16T11:04:41.038Z,28.06
2018-06-16T11:07:13.555Z,28.30
2018-06-16T11:09:44.713Z,28.10
2018-06-16T11:12:15.212Z,28.10
2018-06-16T11:14:45.095Z,28.40
2018-06-16T11:17:17.567Z,28.87
2018-06-16T11:19:51.363Z,29.06
2018-06-16T11:22:23.564Z,29.15
2018-06-16T11:24:54.231Z,29.39
2018-06-16T11:27:26.424Z,29.84
2018-06-16T11:29:59.719Z,30.23
2018-06-16T11:32:31.557Z,30.42
2018-06-16T11:35:03.011Z,31.04
2018-06-16T11:37:35.187Z,31.18
2018-06-16T11:40:12.925Z,31.40
2018-06-16T11:42:43.125Z,31.65
2018-06-16T11:45:12.971Z,31.12
2018-06-16T11:47:42.875Z,31.57
2018-06-16T11:50:12.806Z,31.70
2018-06-16T11:52:42.624Z,32.03
2018-06-16T11:55:12.465Z,32.49
2018-06-16T11:57:42.316Z,33.01
2018-06-16T12:00:12.688Z,32.87
2018-06-16T12:02:43.528Z,33.40
2018-06-16T12:05:13.235Z,33.34
2018-06-16T12:07:43.028Z,33.41
2018-06-16T12:10:12.823Z,33.41
2018-06-16T12:12:42.556Z,33.48
2018-06-16T12:15:12.510Z,33.43
2018-06-16T12:17:42.460Z,33.68
2018-06-16T12:20:12.383Z,33.99
2018-06-16T12:22:42.310Z,34.08
2018-06-16T12:25:12.223Z,34.03
2018-06-16T12:27:41.985Z,34.01
2018-06-16T12:30:11.912Z,33.85
2018-06-16T12:32:41.691Z,33.93
2018-06-16T12:35:11.528Z,33.61
2018-06-16T12:37:41.428Z,34.14
2018-06-16T12:40:11.320Z,34.06
2018-06-16T12:42:41.244Z,33.55
2018-06-16T12:45:11.067Z,34.04
2018-06-16T12:47:40.457Z,34.38
2018-06-16T12:50:10.276Z,32.51
2018-06-16T12:52:40.123Z,32.95
2018-06-16T12:55:09.946Z,32.72
2018-06-16T12:57:39.823Z,31.89
2018-06-16T13:00:09.579Z,32.58
2018-06-16T13:02:39.450Z,33.23
2018-06-16T13:05:09.455Z,33.64
2018-06-16T13:07:39.284Z,33.71
2018-06-16T13:10:09.146Z,33.64
2018-06-16T13:12:39.105Z,33.27
2018-06-16T13:15:08.858Z,33.36
2018-06-16T13:17:38.697Z,33.89
2018-06-16T13:20:08.744Z,34.02
2018-06-16T13:22:38.724Z,33.70
2018-06-16T13:25:08.497Z,32.53
2018-06-16T13:27:38.286Z,32.97
2018-06-16T13:30:07.684Z,32.71
2018-06-16T13:32:37.499Z,32.43
2018-06-16T13:35:07.271Z,32.36
2018-06-16T13:37:37.051Z,32.34
2018-06-16T13:40:06.907Z,32.52
2018-06-16T13:42:36.701Z,32.87
2018-06-16T13:45:06.636Z,33.15
2018-06-16T13:47:36.563Z,33.37
2018-06-16T13:50:06.651Z,33.61
2018-06-16T13:52:36.387Z,33.26
2018-06-16T13:55:06.422Z,33.46
2018-06-16T13:57:36.011Z,32.97
2018-06-16T14:00:06.543Z,33.12
2018-06-16T14:02:36.547Z,31.81
2018-06-16T14:05:06.761Z,32.00
2018-06-16T14:07:37.061Z,32.71
2018-06-16T14:10:07.312Z,32.74
2018-06-16T14:12:37.580Z,32.70
2018-06-16T14:15:08.947Z,32.81
2018-06-16T14:17:40.323Z,32.92
2018-06-16T14:20:11.179Z,31.65
2018-06-16T14:22:41.207Z,31.46
2018-06-16T14:25:11.437Z,31.67
2018-06-16T14:27:42.443Z,32.28
2018-06-16T14:30:12.555Z,32.36
2018-06-16T14:32:42.742Z,31.90
2018-06-16T14:35:12.942Z,31.76
2018-06-16T14:37:43.109Z,30.59
2018-06-16T14:40:13.223Z,30.82
2018-06-16T14:42:43.129Z,29.97
2018-06-16T14:45:13.627Z,30.28
2018-06-16T14:47:43.651Z,30.22
2018-06-16T14:50:14.786Z,30.11
2018-06-16T14:52:44.910Z,30.04
2018-06-16T14:55:17.019Z,29.94
2018-06-16T14:57:47.191Z,29.76
2018-06-16T15:00:17.767Z,29.73
2018-06-16T15:02:49.211Z,29.32
2018-06-16T15:05:19.569Z,29.27
2018-06-16T15:07:49.425Z,29.20
2018-06-16T15:10:19.737Z,29.26
2018-06-16T15:12:50.089Z,29.55
2018-06-16T15:15:20.062Z,29.94
2018-06-16T15:17:50.027Z,30.32
2018-06-16T15:20:20.123Z,30.57
2018-06-16T15:22:50.260Z,30.79
2018-06-16T15:25:20.389Z,31.20
2018-06-16T15:27:50.365Z,31.48
2018-06-16T15:30:20.348Z,31.41
2018-06-16T15:32:51.502Z,31.16
2018-06-16T15:35:21.358Z,31.02
2018-06-16T15:37:52.062Z,30.93
2018-06-16T15:40:22.321Z,30.53
2018-06-16T15:42:52.532Z,29.96
2018-06-16T15:45:22.544Z,29.83
2018-06-16T15:47:52.735Z,29.94
2018-06-16T15:50:22.653Z,30.07
2018-06-16T15:52:52.621Z,30.07
2018-06-16T15:55:23.036Z,29.91
2018-06-16T15:57:52.706Z,29.95
2018-06-16T16:00:23.215Z,29.78
2018-06-16T16:02:54.794Z,29.54
2018-06-16T16:05:24.752Z,29.71
2018-06-16T16:07:54.658Z,29.78
2018-06-16T16:10:24.844Z,29.81
2018-06-16T16:12:54.867Z,29.84
2018-06-16T16:15:24.829Z,29.99
2018-06-16T16:17:54.919Z,30.06
2018-06-16T16:20:24.822Z,30.02
2018-06-16T16:22:54.834Z,30.05
2018-06-16T16:25:24.869Z,30.08
2018-06-16T16:27:54.852Z,30.15
2018-06-16T16:30:24.770Z,29.93
2018-06-16T16:32:54.582Z,29.87
2018-06-16T16:35:24.444Z,30.16
2018-06-16T16:37:55.250Z,30.29
2018-06-16T16:40:28.739Z,30.35
2018-06-16T16:42:58.547Z,30.18
2018-06-16T16:45:28.594Z,30.25
2018-06-16T16:47:58.656Z,30.41
2018-06-16T16:50:28.609Z,30.44
2018-06-16T16:52:58.386Z,30.28
2018-06-16T16:55:28.564Z,30.17
2018-06-16T16:57:58.784Z,30.22
2018-06-16T17:00:29.115Z,29.95
2018-06-16T17:05:46.600Z,30.08
2018-06-16T17:08:16.414Z,30.14
2018-06-16T17:10:47.490Z,30.19
2018-06-16T17:13:18.135Z,30.31
2018-06-16T17:15:49.441Z,30.44
2018-06-16T17:18:20.546Z,30.03
2018-06-16T17:20:52.670Z,29.68
2018-06-16T17:23:23.188Z,29.40
2018-06-16T17:25:53.080Z,29.46
2018-06-16T17:28:23.208Z,29.54
2018-06-16T17:30:52.866Z,29.43
2018-06-16T17:33:24.287Z,29.32
2018-06-16T17:35:54.966Z,28.95
2018-06-16T17:38:24.798Z,29.10
2018-06-16T17:40:54.861Z,29.12
2018-06-16T17:43:25.586Z,28.70
2018-06-16T17:45:57.382Z,28.72
2018-06-16T17:48:27.230Z,28.71
2018-06-16T17:50:58.160Z,28.63
2018-06-16T17:53:31.444Z,28.42
2018-06-16T17:56:03.873Z,27.97
2018-06-16T17:58:34.949Z,27.80
2018-06-16T18:01:04.829Z,27.63
2018-06-16T18:03:35.909Z,27.42
2018-06-16T18:06:05.717Z,27.21
2018-06-16T18:08:35.581Z,27.02
2018-06-16T18:11:06.329Z,26.80
2018-06-16T18:13:37.125Z,26.61
2018-06-16T18:16:07.696Z,26.43
2018-06-16T18:18:37.789Z,26.20
2018-06-16T18:21:07.686Z,25.98
2018-06-16T18:23:37.899Z,25.76
2018-06-16T18:26:08.465Z,25.60
2018-06-16T18:28:38.390Z,25.42
2018-06-16T18:31:08.237Z,25.30
2018-06-16T18:33:38.250Z,25.21
2018-06-16T18:36:08.066Z,25.10
2018-06-16T18:38:38.657Z,24.99
2018-06-16T18:41:09.401Z,24.86
2018-06-16T18:43:40.074Z,24.74
2018-06-16T18:46:10.040Z,24.63
2018-06-16T18:48:39.954Z,24.60
2018-06-16T18:51:10.412Z,24.49
2018-06-16T18:53:40.373Z,24.39
2018-06-16T18:56:10.760Z,24.32
2018-06-16T18:58:40.644Z,24.27
2018-06-16T19:01:12.406Z,24.23
2018-06-16T19:03:42.489Z,24.16
2018-06-16T19:06:12.607Z,24.07
2018-06-16T19:08:42.520Z,24.00
2018-06-16T19:11:13.487Z,23.96
2018-06-16T19:13:48.040Z,23.92
2018-06-16T19:16:17.902Z,23.86
2018-06-16T19:18:48.896Z,23.80
2018-06-16T19:21:18.859Z,23.73
2018-06-16T19:23:51.930Z,23.68
2018-06-16T19:26:21.858Z,23.64
2018-06-16T19:28:51.752Z,23.59
2018-06-16T19:31:22.299Z,23.52
2018-06-16T19:33:52.265Z,23.45
2018-06-16T19:36:22.357Z,23.40
2018-06-16T19:38:55.649Z,23.39
2018-06-16T19:41:25.702Z,23.34
2018-06-16T19:43:55.941Z,23.31
2018-06-16T19:46:26.232Z,23.29
2018-06-16T19:48:57.001Z,23.27
2018-06-16T19:51:26.817Z,23.23
2018-06-16T19:53:56.859Z,23.21
2018-06-16T19:56:26.804Z,23.14
2018-06-16T19:58:57.149Z,23.15
2018-06-16T20:01:27.945Z,23.14
2018-06-16T20:03:57.898Z,23.20
2018-06-16T20:06:28.071Z,23.18
2018-06-16T20:08:57.972Z,23.10
2018-06-16T20:11:27.751Z,23.01
2018-06-16T20:13:57.532Z,22.97
2018-06-16T20:16:27.970Z,22.93
2018-06-16T20:18:57.915Z,22.92
2018-06-16T20:21:28.130Z,22.88
2018-06-16T20:23:57.666Z,22.55
2018-06-16T20:26:27.613Z,22.78
2018-06-16T20:28:57.529Z,22.75
2018-06-16T20:31:27.639Z,22.76
2018-06-16T20:33:57.554Z,22.72
2018-06-16T20:36:27.987Z,22.70
2018-06-16T20:38:57.936Z,22.65
2018-06-16T20:41:27.820Z,22.61
2018-06-16T20:43:57.816Z,22.59
2018-06-16T20:46:27.878Z,22.59
2018-06-16T20:48:57.910Z,22.54
2018-06-16T20:51:28.824Z,22.49
2018-06-16T20:53:58.804Z,22.48
2018-06-16T20:56:28.841Z,22.48
2018-06-16T20:58:58.817Z,22.46
2018-06-16T21:01:29.037Z,22.43
2018-06-16T21:03:59.436Z,22.42
2018-06-16T21:06:29.619Z,22.35
2018-06-16T21:08:59.470Z,22.32
2018-06-16T21:11:29.630Z,22.28
2018-06-16T21:13:59.500Z,22.32
2018-06-16T21:16:29.400Z,22.37
2018-06-16T21:18:59.360Z,22.32
2018-06-16T21:21:29.799Z,22.31
2018-06-16T21:23:59.556Z,22.29
2018-06-16T21:26:29.465Z,22.24
2018-06-16T21:28:59.355Z,22.20
2018-06-16T21:31:29.323Z,22.14
2018-06-16T21:33:59.193Z,22.09
2018-06-16T21:36:29.066Z,22.09
2018-06-16T21:38:58.935Z,22.11
2018-06-16T21:41:28.876Z,22.12
2018-06-16T21:43:58.772Z,22.08
2018-06-16T21:46:28.671Z,22.01
2018-06-16T21:48:58.538Z,21.99
2018-06-16T21:51:28.371Z,21.96
2018-06-16T21:53:58.396Z,21.93
2018-06-16T21:56:28.224Z,21.93
2018-06-16T21:58:58.282Z,21.96
2018-06-16T22:01:36.436Z,21.93
2018-06-16T22:04:07.031Z,21.93
2018-06-16T22:06:36.882Z,21.90
2018-06-16T22:09:10.368Z,21.88
2018-06-16T22:11:40.275Z,21.84
2018-06-16T22:14:10.335Z,21.83
2018-06-16T22:16:40.231Z,21.82
2018-06-16T22:19:10.097Z,21.80
2018-06-16T22:21:39.927Z,21.82
2018-06-16T22:24:10.159Z,21.77
2018-06-16T22:26:40.087Z,21.73
2018-06-16T22:29:10.035Z,21.73
2018-06-16T22:31:39.904Z,21.73
2018-06-16T22:34:09.795Z,21.70
2018-06-16T22:36:39.671Z,21.66
2018-06-16T22:39:12.043Z,21.61
2018-06-16T22:41:41.935Z,21.58
2018-06-16T22:44:12.046Z,21.57
2018-06-16T22:46:41.832Z,21.50
2018-06-16T22:49:11.667Z,21.49
2018-06-16T22:51:41.370Z,21.49
2018-06-16T22:54:11.339Z,21.48
2018-06-16T22:56:41.153Z,21.44
2018-06-16T22:59:10.952Z,21.40
2018-06-16T23:01:40.679Z,21.39
2018-06-16T23:04:10.533Z,21.39
2018-06-16T23:06:40.283Z,21.45
2018-06-16T23:09:11.876Z,21.44
2018-06-16T23:11:41.658Z,21.41
2018-06-16T23:14:11.531Z,21.37
2018-06-16T23:16:42.245Z,21.33
2018-06-16T23:19:12.163Z,21.31
2018-06-16T23:21:41.945Z,21.28
2018-06-16T23:24:11.743Z,21.25
2018-06-16T23:26:41.611Z,21.23
2018-06-16T23:29:11.341Z,21.20
2018-06-16T23:31:41.273Z,21.19
2018-06-16T23:34:11.075Z,21.15
2018-06-16T23:36:41.538Z,21.13
2018-06-16T23:39:12.974Z,21.10
2018-06-16T23:41:43.515Z,21.08
2018-06-16T23:44:13.394Z,21.07
2018-06-16T23:46:43.170Z,21.07
2018-06-16T23:49:12.929Z,21.00
2018-06-16T23:51:42.732Z,20.92
2018-06-16T23:54:13.183Z,20.86
2018-06-16T23:56:42.976Z,20.86
2018-06-16T23:59:12.802Z,20.80
